sensor_id;sensor_type;location;lat;lon;timestamp;P1;durP1;ratioP1;P2;durP2;ratioP2
68168;SDS011;54981;50.206;15.978;2022-07-29T00:00:39;12.35;;;6.30;;
68168;SDS011;54981;50.206;15.978;2022-07-29T00:03:04;8.48;;;6.10;;
68168;SDS011;54981;50.206;15.978;2022-07-29T00:05:30;9.00;;;6.15;;
68168;SDS011;54981;50.206;15.978;2022-07-29T00:07:55;10.50;;;6.47;;
68168;SDS011;54981;50.206;15.978;2022-07-29T00:10:20;8.00;;;6.55;;
68168;SDS011;54981;50.206;15.978;2022-07-29T00:12:46;9.05;;;7.50;;
68168;SDS011;54981;50.206;15.978;2022-07-29T00:15:11;7.63;;;6.93;;
68168;SDS011;54981;50.206;15.978;2022-07-29T00:17:37;9.73;;;6.68;;
68168;SDS011;54981;50.206;15.978;2022-07-29T00:20:02;12.43;;;8.02;;
68168;SDS011;54981;50.206;15.978;2022-07-29T00:22:28;8.80;;;7.13;;
68168;SDS011;54981;50.206;15.978;2022-07-29T00:24:54;10.23;;;7.45;;
68168;SDS011;54981;50.206;15.978;2022-07-29T00:27:19;12.07;;;6.05;;
68168;SDS011;54981;50.206;15.978;2022-07-29T00:29:44;12.30;;;6.80;;
68168;SDS011;54981;50.206;15.978;2022-07-29T00:32:10;8.73;;;6.95;;
68168;SDS011;54981;50.206;15.978;2022-07-29T00:34:35;9.93;;;7.68;;
68168;SDS011;54981;50.206;15.978;2022-07-29T00:37:19;13.27;;;7.43;;
68168;SDS011;54981;50.206;15.978;2022-07-29T00:39:45;9.38;;;7.95;;
68168;SDS011;54981;50.206;15.978;2022-07-29T00:42:10;9.90;;;7.68;;
68168;SDS011;54981;50.206;15.978;2022-07-29T00:44:39;12.93;;;8.05;;
68168;SDS011;54981;50.206;15.978;2022-07-29T00:47:06;10.02;;;8.30;;
68168;SDS011;54981;50.206;15.978;2022-07-29T00:49:32;8.05;;;7.25;;
68168;SDS011;54981;50.206;15.978;2022-07-29T00:52:00;7.28;;;6.57;;
68168;SDS011;54981;50.206;15.978;2022-07-29T00:54:27;8.57;;;7.78;;
68168;SDS011;54981;50.206;15.978;2022-07-29T00:56:53;9.70;;;8.38;;
68168;SDS011;54981;50.206;15.978;2022-07-29T00:59:21;8.55;;;7.45;;
68168;SDS011;54981;50.206;15.978;2022-07-29T01:01:46;9.20;;;6.88;;
68168;SDS011;54981;50.206;15.978;2022-07-29T01:04:12;7.28;;;6.43;;
68168;SDS011;54981;50.206;15.978;2022-07-29T01:06:37;9.68;;;7.53;;
68168;SDS011;54981;50.206;15.978;2022-07-29T01:09:02;8.18;;;7.40;;
68168;SDS011;54981;50.206;15.978;2022-07-29T01:11:28;8.82;;;7.22;;
68168;SDS011;54981;50.206;15.978;2022-07-29T01:13:54;8.38;;;7.30;;
68168;SDS011;54981;50.206;15.978;2022-07-29T01:16:31;9.45;;;8.30;;
68168;SDS011;54981;50.206;15.978;2022-07-29T01:19:19;8.15;;;7.35;;
68168;SDS011;54981;50.206;15.978;2022-07-29T01:21:51;10.70;;;7.22;;
68168;SDS011;54981;50.206;15.978;2022-07-29T01:27:23;8.63;;;7.22;;
68168;SDS011;54981;50.206;15.978;2022-07-29T01:30:02;11.15;;;8.02;;
68168;SDS011;54981;50.206;15.978;2022-07-29T01:32:29;8.70;;;7.70;;
68168;SDS011;54981;50.206;15.978;2022-07-29T01:38:05;14.52;;;7.35;;
68168;SDS011;54981;50.206;15.978;2022-07-29T01:40:36;9.85;;;7.00;;
68168;SDS011;54981;50.206;15.978;2022-07-29T01:43:10;9.82;;;7.53;;
68168;SDS011;54981;50.206;15.978;2022-07-29T01:45:46;9.20;;;6.75;;
68168;SDS011;54981;50.206;15.978;2022-07-29T01:48:19;8.65;;;7.60;;
68168;SDS011;54981;50.206;15.978;2022-07-29T01:50:49;11.43;;;7.75;;
68168;SDS011;54981;50.206;15.978;2022-07-29T01:53:21;7.97;;;6.97;;
68168;SDS011;54981;50.206;15.978;2022-07-29T01:55:59;10.48;;;7.13;;
68168;SDS011;54981;50.206;15.978;2022-07-29T01:58:26;10.48;;;7.80;;
68168;SDS011;54981;50.206;15.978;2022-07-29T02:00:55;8.57;;;7.80;;
68168;SDS011;54981;50.206;15.978;2022-07-29T02:03:22;8.45;;;7.65;;
68168;SDS011;54981;50.206;15.978;2022-07-29T02:05:48;8.57;;;7.43;;
68168;SDS011;54981;50.206;15.978;2022-07-29T02:08:15;9.15;;;7.07;;
68168;SDS011;54981;50.206;15.978;2022-07-29T02:10:43;10.38;;;8.18;;
68168;SDS011;54981;50.206;15.978;2022-07-29T02:13:10;9.95;;;8.98;;
68168;SDS011;54981;50.206;15.978;2022-07-29T02:15:37;9.60;;;7.80;;
68168;SDS011;54981;50.206;15.978;2022-07-29T02:18:07;8.85;;;7.65;;
68168;SDS011;54981;50.206;15.978;2022-07-29T02:20:37;8.23;;;7.00;;
68168;SDS011;54981;50.206;15.978;2022-07-29T02:23:05;13.15;;;7.50;;
68168;SDS011;54981;50.206;15.978;2022-07-29T02:25:34;9.85;;;6.88;;
68168;SDS011;54981;50.206;15.978;2022-07-29T02:28:00;9.23;;;7.47;;
68168;SDS011;54981;50.206;15.978;2022-07-29T02:30:27;10.95;;;7.38;;
68168;SDS011;54981;50.206;15.978;2022-07-29T02:32:55;13.00;;;8.05;;
68168;SDS011;54981;50.206;15.978;2022-07-29T02:35:21;10.38;;;8.10;;
68168;SDS011;54981;50.206;15.978;2022-07-29T02:37:47;7.68;;;6.97;;
68168;SDS011;54981;50.206;15.978;2022-07-29T02:40:34;10.63;;;8.10;;
68168;SDS011;54981;50.206;15.978;2022-07-29T02:43:03;10.38;;;9.38;;
68168;SDS011;54981;50.206;15.978;2022-07-29T02:45:32;9.88;;;8.25;;
68168;SDS011;54981;50.206;15.978;2022-07-29T02:47:59;11.27;;;8.15;;
68168;SDS011;54981;50.206;15.978;2022-07-29T02:50:31;9.05;;;8.15;;
68168;SDS011;54981;50.206;15.978;2022-07-29T02:53:11;9.02;;;8.18;;
68168;SDS011;54981;50.206;15.978;2022-07-29T02:55:43;13.10;;;8.65;;
68168;SDS011;54981;50.206;15.978;2022-07-29T02:58:31;9.93;;;8.70;;
68168;SDS011;54981;50.206;15.978;2022-07-29T03:00:59;9.73;;;8.73;;
68168;SDS011;54981;50.206;15.978;2022-07-29T03:03:34;9.52;;;8.52;;
68168;SDS011;54981;50.206;15.978;2022-07-29T03:06:02;10.07;;;7.38;;
68168;SDS011;54981;50.206;15.978;2022-07-29T03:08:29;7.95;;;7.15;;
68168;SDS011;54981;50.206;15.978;2022-07-29T03:10:57;8.18;;;7.30;;
68168;SDS011;54981;50.206;15.978;2022-07-29T03:13:22;8.70;;;7.68;;
68168;SDS011;54981;50.206;15.978;2022-07-29T03:15:49;10.25;;;7.38;;
68168;SDS011;54981;50.206;15.978;2022-07-29T03:18:15;8.25;;;7.20;;
68168;SDS011;54981;50.206;15.978;2022-07-29T03:20:40;9.68;;;7.82;;
68168;SDS011;54981;50.206;15.978;2022-07-29T03:23:07;9.73;;;8.73;;
68168;SDS011;54981;50.206;15.978;2022-07-29T03:25:33;10.25;;;9.13;;
68168;SDS011;54981;50.206;15.978;2022-07-29T03:27:59;9.98;;;8.77;;
68168;SDS011;54981;50.206;15.978;2022-07-29T03:30:24;9.85;;;8.40;;
68168;SDS011;54981;50.206;15.978;2022-07-29T03:32:50;9.57;;;8.05;;
68168;SDS011;54981;50.206;15.978;2022-07-29T03:35:16;9.88;;;8.85;;
68168;SDS011;54981;50.206;15.978;2022-07-29T03:37:42;10.15;;;8.90;;
68168;SDS011;54981;50.206;15.978;2022-07-29T03:40:08;9.73;;;8.82;;
68168;SDS011;54981;50.206;15.978;2022-07-29T03:42:36;10.10;;;9.15;;
68168;SDS011;54981;50.206;15.978;2022-07-29T03:45:08;12.90;;;9.68;;
68168;SDS011;54981;50.206;15.978;2022-07-29T03:47:38;10.13;;;7.97;;
68168;SDS011;54981;50.206;15.978;2022-07-29T03:50:11;10.57;;;8.70;;
68168;SDS011;54981;50.206;15.978;2022-07-29T03:52:39;11.80;;;8.20;;
68168;SDS011;54981;50.206;15.978;2022-07-29T03:55:05;10.27;;;9.05;;
68168;SDS011;54981;50.206;15.978;2022-07-29T03:57:31;10.32;;;8.90;;
68168;SDS011;54981;50.206;15.978;2022-07-29T03:59:58;11.07;;;9.07;;
68168;SDS011;54981;50.206;15.978;2022-07-29T04:02:26;11.38;;;8.10;;
68168;SDS011;54981;50.206;15.978;2022-07-29T04:04:52;12.30;;;9.05;;
68168;SDS011;54981;50.206;15.978;2022-07-29T04:07:17;12.40;;;9.18;;
68168;SDS011;54981;50.206;15.978;2022-07-29T04:09:43;9.90;;;8.70;;
68168;SDS011;54981;50.206;15.978;2022-07-29T04:12:08;15.07;;;9.00;;
68168;SDS011;54981;50.206;15.978;2022-07-29T04:14:35;10.02;;;8.98;;
68168;SDS011;54981;50.206;15.978;2022-07-29T04:17:00;19.33;;;9.32;;
68168;SDS011;54981;50.206;15.978;2022-07-29T04:19:27;8.95;;;7.72;;
68168;SDS011;54981;50.206;15.978;2022-07-29T04:21:52;9.27;;;7.05;;
68168;SDS011;54981;50.206;15.978;2022-07-29T04:24:18;11.63;;;8.23;;
68168;SDS011;54981;50.206;15.978;2022-07-29T04:26:44;12.85;;;8.07;;
68168;SDS011;54981;50.206;15.978;2022-07-29T04:29:10;10.68;;;7.47;;
68168;SDS011;54981;50.206;15.978;2022-07-29T04:31:36;9.75;;;7.70;;
68168;SDS011;54981;50.206;15.978;2022-07-29T04:34:02;9.65;;;7.75;;
68168;SDS011;54981;50.206;15.978;2022-07-29T04:36:27;8.02;;;7.22;;
68168;SDS011;54981;50.206;15.978;2022-07-29T04:38:53;9.60;;;7.75;;
68168;SDS011;54981;50.206;15.978;2022-07-29T04:41:18;10.02;;;7.90;;
68168;SDS011;54981;50.206;15.978;2022-07-29T04:43:43;13.00;;;8.20;;
68168;SDS011;54981;50.206;15.978;2022-07-29T04:46:09;13.02;;;8.00;;
68168;SDS011;54981;50.206;15.978;2022-07-29T04:48:34;8.60;;;7.35;;
68168;SDS011;54981;50.206;15.978;2022-07-29T04:50:59;12.63;;;7.95;;
68168;SDS011;54981;50.206;15.978;2022-07-29T04:53:25;8.93;;;7.82;;
68168;SDS011;54981;50.206;15.978;2022-07-29T04:55:50;8.10;;;7.28;;
68168;SDS011;54981;50.206;15.978;2022-07-29T04:58:16;10.70;;;7.90;;
68168;SDS011;54981;50.206;15.978;2022-07-29T05:00:41;8.60;;;7.03;;
68168;SDS011;54981;50.206;15.978;2022-07-29T05:03:07;13.07;;;7.57;;
68168;SDS011;54981;50.206;15.978;2022-07-29T05:05:32;8.48;;;6.65;;
68168;SDS011;54981;50.206;15.978;2022-07-29T05:07:57;11.43;;;7.13;;
68168;SDS011;54981;50.206;15.978;2022-07-29T05:10:23;9.63;;;7.22;;
68168;SDS011;54981;50.206;15.978;2022-07-29T05:12:49;13.40;;;7.20;;
68168;SDS011;54981;50.206;15.978;2022-07-29T05:15:14;10.23;;;6.97;;
68168;SDS011;54981;50.206;15.978;2022-07-29T05:17:39;10.40;;;6.05;;
68168;SDS011;54981;50.206;15.978;2022-07-29T05:20:05;9.68;;;6.57;;
68168;SDS011;54981;50.206;15.978;2022-07-29T05:22:31;11.05;;;6.93;;
68168;SDS011;54981;50.206;15.978;2022-07-29T05:24:56;12.20;;;7.13;;
68168;SDS011;54981;50.206;15.978;2022-07-29T05:27:22;8.75;;;6.95;;
68168;SDS011;54981;50.206;15.978;2022-07-29T05:29:47;11.65;;;7.07;;
68168;SDS011;54981;50.206;15.978;2022-07-29T05:32:12;9.00;;;7.72;;
68168;SDS011;54981;50.206;15.978;2022-07-29T05:34:38;10.27;;;6.53;;
68168;SDS011;54981;50.206;15.978;2022-07-29T05:37:03;11.10;;;6.80;;
68168;SDS011;54981;50.206;15.978;2022-07-29T05:39:29;10.68;;;7.03;;
68168;SDS011;54981;50.206;15.978;2022-07-29T05:41:54;13.77;;;7.72;;
68168;SDS011;54981;50.206;15.978;2022-07-29T05:44:19;8.48;;;6.03;;
68168;SDS011;54981;50.206;15.978;2022-07-29T05:46:45;10.00;;;6.30;;
68168;SDS011;54981;50.206;15.978;2022-07-29T05:49:10;10.52;;;6.97;;
68168;SDS011;54981;50.206;15.978;2022-07-29T05:51:35;15.30;;;7.55;;
68168;SDS011;54981;50.206;15.978;2022-07-29T05:54:01;10.48;;;6.18;;
68168;SDS011;54981;50.206;15.978;2022-07-29T05:56:27;7.93;;;5.53;;
68168;SDS011;54981;50.206;15.978;2022-07-29T05:58:53;7.68;;;5.53;;
68168;SDS011;54981;50.206;15.978;2022-07-29T06:01:19;7.82;;;5.82;;
68168;SDS011;54981;50.206;15.978;2022-07-29T06:03:44;8.75;;;5.43;;
68168;SDS011;54981;50.206;15.978;2022-07-29T06:06:10;9.55;;;6.90;;
68168;SDS011;54981;50.206;15.978;2022-07-29T06:08:36;8.70;;;6.00;;
68168;SDS011;54981;50.206;15.978;2022-07-29T06:11:02;7.53;;;5.65;;
68168;SDS011;54981;50.206;15.978;2022-07-29T06:13:28;6.40;;;5.22;;
68168;SDS011;54981;50.206;15.978;2022-07-29T06:15:54;8.68;;;6.28;;
68168;SDS011;54981;50.206;15.978;2022-07-29T06:18:19;10.52;;;6.00;;
68168;SDS011;54981;50.206;15.978;2022-07-29T06:20:45;6.97;;;5.70;;
68168;SDS011;54981;50.206;15.978;2022-07-29T06:23:11;8.73;;;5.72;;
68168;SDS011;54981;50.206;15.978;2022-07-29T06:25:36;7.72;;;5.55;;
68168;SDS011;54981;50.206;15.978;2022-07-29T06:28:02;8.60;;;5.45;;
68168;SDS011;54981;50.206;15.978;2022-07-29T06:30:28;7.38;;;4.93;;
68168;SDS011;54981;50.206;15.978;2022-07-29T06:32:54;8.13;;;5.38;;
68168;SDS011;54981;50.206;15.978;2022-07-29T06:35:20;8.45;;;4.97;;
68168;SDS011;54981;50.206;15.978;2022-07-29T06:37:45;7.38;;;4.88;;
68168;SDS011;54981;50.206;15.978;2022-07-29T06:40:10;9.75;;;5.65;;
68168;SDS011;54981;50.206;15.978;2022-07-29T06:42:55;8.88;;;5.78;;
68168;SDS011;54981;50.206;15.978;2022-07-29T06:45:20;7.47;;;5.68;;
68168;SDS011;54981;50.206;15.978;2022-07-29T06:47:45;6.18;;;4.70;;
68168;SDS011;54981;50.206;15.978;2022-07-29T06:50:11;7.45;;;5.35;;
68168;SDS011;54981;50.206;15.978;2022-07-29T06:52:37;10.80;;;5.10;;
68168;SDS011;54981;50.206;15.978;2022-07-29T06:55:03;7.47;;;5.50;;
68168;SDS011;54981;50.206;15.978;2022-07-29T06:57:29;7.88;;;5.07;;
68168;SDS011;54981;50.206;15.978;2022-07-29T06:59:56;8.00;;;5.07;;
68168;SDS011;54981;50.206;15.978;2022-07-29T07:02:21;7.75;;;4.95;;
68168;SDS011;54981;50.206;15.978;2022-07-29T07:04:47;8.90;;;5.30;;
68168;SDS011;54981;50.206;15.978;2022-07-29T07:07:12;15.27;;;5.55;;
68168;SDS011;54981;50.206;15.978;2022-07-29T07:09:37;7.07;;;5.13;;
68168;SDS011;54981;50.206;15.978;2022-07-29T07:12:03;11.52;;;5.55;;
68168;SDS011;54981;50.206;15.978;2022-07-29T07:14:29;8.30;;;4.85;;
68168;SDS011;54981;50.206;15.978;2022-07-29T07:16:55;8.65;;;5.15;;
68168;SDS011;54981;50.206;15.978;2022-07-29T07:19:20;8.35;;;4.93;;
68168;SDS011;54981;50.206;15.978;2022-07-29T07:21:45;6.30;;;4.75;;
68168;SDS011;54981;50.206;15.978;2022-07-29T07:24:11;7.32;;;5.07;;
68168;SDS011;54981;50.206;15.978;2022-07-29T07:26:36;8.27;;;4.95;;
68168;SDS011;54981;50.206;15.978;2022-07-29T07:29:02;16.00;;;5.03;;
68168;SDS011;54981;50.206;15.978;2022-07-29T07:31:28;8.07;;;4.40;;
68168;SDS011;54981;50.206;15.978;2022-07-29T07:33:53;7.63;;;4.70;;
68168;SDS011;54981;50.206;15.978;2022-07-29T07:36:19;6.78;;;5.03;;
68168;SDS011;54981;50.206;15.978;2022-07-29T07:38:44;7.82;;;4.68;;
68168;SDS011;54981;50.206;15.978;2022-07-29T07:41:09;8.68;;;4.90;;
68168;SDS011;54981;50.206;15.978;2022-07-29T07:43:35;8.93;;;4.57;;
68168;SDS011;54981;50.206;15.978;2022-07-29T07:46:00;6.07;;;4.20;;
68168;SDS011;54981;50.206;15.978;2022-07-29T07:48:25;5.88;;;4.35;;
68168;SDS011;54981;50.206;15.978;2022-07-29T07:50:51;6.30;;;4.10;;
68168;SDS011;54981;50.206;15.978;2022-07-29T07:53:16;4.63;;;3.83;;
68168;SDS011;54981;50.206;15.978;2022-07-29T07:55:42;5.38;;;4.32;;
68168;SDS011;54981;50.206;15.978;2022-07-29T07:58:08;5.88;;;4.45;;
68168;SDS011;54981;50.206;15.978;2022-07-29T08:00:33;8.05;;;4.38;;
68168;SDS011;54981;50.206;15.978;2022-07-29T08:02:59;9.77;;;4.30;;
68168;SDS011;54981;50.206;15.978;2022-07-29T08:05:24;5.00;;;4.03;;
68168;SDS011;54981;50.206;15.978;2022-07-29T08:07:50;6.28;;;4.40;;
68168;SDS011;54981;50.206;15.978;2022-07-29T08:10:16;8.02;;;4.55;;
68168;SDS011;54981;50.206;15.978;2022-07-29T08:13:05;6.82;;;4.28;;
68168;SDS011;54981;50.206;15.978;2022-07-29T08:15:32;6.57;;;4.35;;
68168;SDS011;54981;50.206;15.978;2022-07-29T08:17:57;6.05;;;3.67;;
68168;SDS011;54981;50.206;15.978;2022-07-29T08:20:23;5.55;;;4.63;;
68168;SDS011;54981;50.206;15.978;2022-07-29T08:22:49;6.55;;;4.30;;
68168;SDS011;54981;50.206;15.978;2022-07-29T08:25:14;4.72;;;4.22;;
68168;SDS011;54981;50.206;15.978;2022-07-29T08:27:40;5.63;;;3.80;;
68168;SDS011;54981;50.206;15.978;2022-07-29T08:30:05;5.60;;;4.13;;
68168;SDS011;54981;50.206;15.978;2022-07-29T08:32:31;4.28;;;3.50;;
68168;SDS011;54981;50.206;15.978;2022-07-29T08:34:57;6.28;;;3.83;;
68168;SDS011;54981;50.206;15.978;2022-07-29T08:37:22;6.20;;;4.32;;
68168;SDS011;54981;50.206;15.978;2022-07-29T08:39:47;7.78;;;4.13;;
68168;SDS011;54981;50.206;15.978;2022-07-29T08:42:13;8.63;;;4.28;;
68168;SDS011;54981;50.206;15.978;2022-07-29T08:44:38;7.07;;;4.47;;
68168;SDS011;54981;50.206;15.978;2022-07-29T08:47:04;4.88;;;3.75;;
68168;SDS011;54981;50.206;15.978;2022-07-29T08:49:32;5.60;;;4.30;;
68168;SDS011;54981;50.206;15.978;2022-07-29T08:51:58;5.38;;;4.30;;
68168;SDS011;54981;50.206;15.978;2022-07-29T08:54:25;7.80;;;4.32;;
68168;SDS011;54981;50.206;15.978;2022-07-29T08:56:51;11.40;;;4.80;;
68168;SDS011;54981;50.206;15.978;2022-07-29T08:59:20;7.30;;;4.05;;
68168;SDS011;54981;50.206;15.978;2022-07-29T09:01:47;6.22;;;3.85;;
68168;SDS011;54981;50.206;15.978;2022-07-29T09:04:13;6.50;;;3.80;;
68168;SDS011;54981;50.206;15.978;2022-07-29T09:06:42;4.68;;;3.92;;
68168;SDS011;54981;50.206;15.978;2022-07-29T09:09:11;7.50;;;3.78;;
68168;SDS011;54981;50.206;15.978;2022-07-29T09:11:38;5.93;;;3.92;;
68168;SDS011;54981;50.206;15.978;2022-07-29T09:14:04;5.78;;;4.13;;
68168;SDS011;54981;50.206;15.978;2022-07-29T09:16:50;7.05;;;4.20;;
68168;SDS011;54981;50.206;15.978;2022-07-29T09:19:29;5.72;;;4.20;;
68168;SDS011;54981;50.206;15.978;2022-07-29T09:22:02;6.93;;;4.45;;
68168;SDS011;54981;50.206;15.978;2022-07-29T09:26:59;4.93;;;4.32;;
68168;SDS011;54981;50.206;15.978;2022-07-29T09:29:24;5.65;;;4.43;;
68168;SDS011;54981;50.206;15.978;2022-07-29T09:31:51;8.40;;;4.10;;
68168;SDS011;54981;50.206;15.978;2022-07-29T09:34:22;6.95;;;4.28;;
68168;SDS011;54981;50.206;15.978;2022-07-29T09:36:48;7.00;;;5.25;;
68168;SDS011;54981;50.206;15.978;2022-07-29T09:39:15;7.13;;;4.47;;
68168;SDS011;54981;50.206;15.978;2022-07-29T09:41:53;7.57;;;4.15;;
68168;SDS011;54981;50.206;15.978;2022-07-29T09:44:19;5.75;;;4.60;;
68168;SDS011;54981;50.206;15.978;2022-07-29T09:47:19;9.32;;;4.80;;
68168;SDS011;54981;50.206;15.978;2022-07-29T09:49:54;8.07;;;4.38;;
68168;SDS011;54981;50.206;15.978;2022-07-29T09:52:28;8.82;;;4.10;;
68168;SDS011;54981;50.206;15.978;2022-07-29T09:55:04;8.18;;;4.43;;
68168;SDS011;54981;50.206;15.978;2022-07-29T09:57:33;9.45;;;4.55;;
68168;SDS011;54981;50.206;15.978;2022-07-29T09:59:59;6.43;;;4.13;;
68168;SDS011;54981;50.206;15.978;2022-07-29T10:02:34;7.25;;;4.32;;
68168;SDS011;54981;50.206;15.978;2022-07-29T10:05:01;10.57;;;4.72;;
68168;SDS011;54981;50.206;15.978;2022-07-29T10:07:44;8.93;;;4.78;;
68168;SDS011;54981;50.206;15.978;2022-07-29T10:10:18;11.07;;;4.65;;
68168;SDS011;54981;50.206;15.978;2022-07-29T10:12:50;7.03;;;4.38;;
68168;SDS011;54981;50.206;15.978;2022-07-29T10:15:17;10.05;;;4.30;;
68168;SDS011;54981;50.206;15.978;2022-07-29T10:17:44;9.13;;;4.35;;
68168;SDS011;54981;50.206;15.978;2022-07-29T10:20:10;6.55;;;4.30;;
68168;SDS011;54981;50.206;15.978;2022-07-29T10:22:36;7.70;;;4.10;;
68168;SDS011;54981;50.206;15.978;2022-07-29T10:25:02;11.75;;;5.32;;
68168;SDS011;54981;50.206;15.978;2022-07-29T10:27:28;9.43;;;4.70;;
68168;SDS011;54981;50.206;15.978;2022-07-29T10:29:53;7.03;;;4.38;;
68168;SDS011;54981;50.206;15.978;2022-07-29T10:40:33;8.27;;;3.97;;
68168;SDS011;54981;50.206;15.978;2022-07-29T10:43:28;8.32;;;4.28;;
68168;SDS011;54981;50.206;15.978;2022-07-29T10:45:58;4.70;;;3.58;;
68168;SDS011;54981;50.206;15.978;2022-07-29T10:48:25;9.77;;;4.05;;
68168;SDS011;54981;50.206;15.978;2022-07-29T10:50:54;6.95;;;3.85;;
68168;SDS011;54981;50.206;15.978;2022-07-29T10:53:45;6.15;;;4.10;;
68168;SDS011;54981;50.206;15.978;2022-07-29T10:56:28;6.20;;;3.63;;
68168;SDS011;54981;50.206;15.978;2022-07-29T11:01:44;4.47;;;3.72;;
68168;SDS011;54981;50.206;15.978;2022-07-29T11:04:11;6.78;;;4.18;;
68168;SDS011;54981;50.206;15.978;2022-07-29T11:09:30;5.25;;;3.70;;
68168;SDS011;54981;50.206;15.978;2022-07-29T11:11:59;8.48;;;4.13;;
68168;SDS011;54981;50.206;15.978;2022-07-29T11:17:18;3.90;;;3.50;;
68168;SDS011;54981;50.206;15.978;2022-07-29T11:19:44;5.93;;;3.90;;
68168;SDS011;54981;50.206;15.978;2022-07-29T11:22:10;5.68;;;3.78;;
68168;SDS011;54981;50.206;15.978;2022-07-29T11:24:36;3.80;;;3.38;;
68168;SDS011;54981;50.206;15.978;2022-07-29T11:27:35;4.85;;;3.65;;
68168;SDS011;54981;50.206;15.978;2022-07-29T11:30:04;3.97;;;3.25;;
68168;SDS011;54981;50.206;15.978;2022-07-29T11:32:37;4.13;;;3.72;;
68168;SDS011;54981;50.206;15.978;2022-07-29T11:35:14;4.63;;;2.88;;
68168;SDS011;54981;50.206;15.978;2022-07-29T11:43:45;5.47;;;2.80;;
68168;SDS011;54981;50.206;15.978;2022-07-29T11:46:12;5.68;;;3.38;;
68168;SDS011;54981;50.206;15.978;2022-07-29T11:48:41;3.90;;;2.90;;
68168;SDS011;54981;50.206;15.978;2022-07-29T11:51:11;4.13;;;3.30;;
68168;SDS011;54981;50.206;15.978;2022-07-29T11:53:38;3.80;;;3.40;;
68168;SDS011;54981;50.206;15.978;2022-07-29T11:56:04;7.50;;;3.70;;
68168;SDS011;54981;50.206;15.978;2022-07-29T11:58:33;3.75;;;3.33;;
68168;SDS011;54981;50.206;15.978;2022-07-29T12:00:59;3.95;;;3.42;;
68168;SDS011;54981;50.206;15.978;2022-07-29T12:03:37;4.22;;;3.28;;
68168;SDS011;54981;50.206;15.978;2022-07-29T12:06:23;5.40;;;3.70;;
68168;SDS011;54981;50.206;15.978;2022-07-29T12:08:48;4.28;;;3.80;;
68168;SDS011;54981;50.206;15.978;2022-07-29T12:11:19;5.72;;;4.22;;
68168;SDS011;54981;50.206;15.978;2022-07-29T12:13:45;5.65;;;3.35;;
68168;SDS011;54981;50.206;15.978;2022-07-29T12:16:11;8.48;;;4.00;;
68168;SDS011;54981;50.206;15.978;2022-07-29T12:18:36;5.45;;;4.00;;
68168;SDS011;54981;50.206;15.978;2022-07-29T12:21:01;4.53;;;3.73;;
68168;SDS011;54981;50.206;15.978;2022-07-29T12:23:31;6.55;;;4.85;;
68168;SDS011;54981;50.206;15.978;2022-07-29T12:25:57;7.32;;;5.40;;
68168;SDS011;54981;50.206;15.978;2022-07-29T12:28:23;6.13;;;4.28;;
68168;SDS011;54981;50.206;15.978;2022-07-29T12:30:49;4.70;;;4.07;;
68168;SDS011;54981;50.206;15.978;2022-07-29T12:33:26;8.50;;;4.10;;
68168;SDS011;54981;50.206;15.978;2022-07-29T12:35:57;5.57;;;3.85;;
68168;SDS011;54981;50.206;15.978;2022-07-29T12:38:24;6.13;;;3.75;;
68168;SDS011;54981;50.206;15.978;2022-07-29T12:40:51;5.30;;;3.72;;
68168;SDS011;54981;50.206;15.978;2022-07-29T12:43:18;6.20;;;4.28;;
68168;SDS011;54981;50.206;15.978;2022-07-29T12:45:46;7.55;;;4.28;;
68168;SDS011;54981;50.206;15.978;2022-07-29T12:48:14;5.13;;;4.35;;
68168;SDS011;54981;50.206;15.978;2022-07-29T12:50:57;7.72;;;4.32;;
68168;SDS011;54981;50.206;15.978;2022-07-29T12:53:24;5.57;;;4.40;;
68168;SDS011;54981;50.206;15.978;2022-07-29T12:55:50;8.40;;;4.88;;
68168;SDS011;54981;50.206;15.978;2022-07-29T12:58:27;7.32;;;4.43;;
68168;SDS011;54981;50.206;15.978;2022-07-29T13:03:40;6.90;;;5.15;;
68168;SDS011;54981;50.206;15.978;2022-07-29T13:06:07;8.00;;;5.63;;
68168;SDS011;54981;50.206;15.978;2022-07-29T13:11:42;5.47;;;4.78;;
68168;SDS011;54981;50.206;15.978;2022-07-29T13:14:14;6.32;;;4.90;;
68168;SDS011;54981;50.206;15.978;2022-07-29T13:17:21;7.88;;;5.20;;
68168;SDS011;54981;50.206;15.978;2022-07-29T13:19:53;6.13;;;4.32;;
68168;SDS011;54981;50.206;15.978;2022-07-29T13:22:30;6.00;;;4.22;;
68168;SDS011;54981;50.206;15.978;2022-07-29T13:24:57;4.78;;;4.20;;
68168;SDS011;54981;50.206;15.978;2022-07-29T13:27:25;5.82;;;4.47;;
68168;SDS011;54981;50.206;15.978;2022-07-29T13:29:53;7.25;;;4.35;;
68168;SDS011;54981;50.206;15.978;2022-07-29T13:32:21;6.05;;;4.10;;
68168;SDS011;54981;50.206;15.978;2022-07-29T13:34:48;7.47;;;5.07;;
68168;SDS011;54981;50.206;15.978;2022-07-29T13:37:13;7.75;;;4.63;;
68168;SDS011;54981;50.206;15.978;2022-07-29T13:39:39;6.65;;;4.35;;
68168;SDS011;54981;50.206;15.978;2022-07-29T13:42:05;8.48;;;4.18;;
68168;SDS011;54981;50.206;15.978;2022-07-29T13:44:32;6.55;;;4.63;;
68168;SDS011;54981;50.206;15.978;2022-07-29T13:46:57;5.78;;;4.75;;
68168;SDS011;54981;50.206;15.978;2022-07-29T13:49:23;7.43;;;4.47;;
68168;SDS011;54981;50.206;15.978;2022-07-29T13:51:49;8.45;;;4.57;;
68168;SDS011;54981;50.206;15.978;2022-07-29T13:54:15;12.90;;;5.18;;
68168;SDS011;54981;50.206;15.978;2022-07-29T13:56:40;9.55;;;5.38;;
68168;SDS011;54981;50.206;15.978;2022-07-29T13:59:06;8.63;;;5.45;;
68168;SDS011;54981;50.206;15.978;2022-07-29T14:01:32;6.80;;;4.85;;
68168;SDS011;54981;50.206;15.978;2022-07-29T14:03:58;9.43;;;4.95;;
68168;SDS011;54981;50.206;15.978;2022-07-29T14:06:24;8.13;;;5.20;;
68168;SDS011;54981;50.206;15.978;2022-07-29T14:08:49;6.45;;;5.10;;
68168;SDS011;54981;50.206;15.978;2022-07-29T14:11:14;7.47;;;5.10;;
68168;SDS011;54981;50.206;15.978;2022-07-29T14:13:40;6.10;;;4.65;;
68168;SDS011;54981;50.206;15.978;2022-07-29T14:16:05;7.70;;;4.85;;
68168;SDS011;54981;50.206;15.978;2022-07-29T14:18:31;7.60;;;4.75;;
68168;SDS011;54981;50.206;15.978;2022-07-29T14:20:57;9.50;;;5.05;;
68168;SDS011;54981;50.206;15.978;2022-07-29T14:23:22;10.18;;;5.40;;
68168;SDS011;54981;50.206;15.978;2022-07-29T14:25:48;6.00;;;4.82;;
68168;SDS011;54981;50.206;15.978;2022-07-29T14:28:13;8.98;;;5.47;;
68168;SDS011;54981;50.206;15.978;2022-07-29T14:30:38;8.45;;;5.53;;
68168;SDS011;54981;50.206;15.978;2022-07-29T14:33:04;8.70;;;5.20;;
68168;SDS011;54981;50.206;15.978;2022-07-29T14:35:29;7.93;;;5.10;;
68168;SDS011;54981;50.206;15.978;2022-07-29T14:37:55;7.35;;;5.00;;
68168;SDS011;54981;50.206;15.978;2022-07-29T14:40:20;8.23;;;5.07;;
68168;SDS011;54981;50.206;15.978;2022-07-29T14:42:46;6.75;;;5.40;;
68168;SDS011;54981;50.206;15.978;2022-07-29T14:45:11;9.00;;;5.40;;
68168;SDS011;54981;50.206;15.978;2022-07-29T14:47:37;7.53;;;5.35;;
68168;SDS011;54981;50.206;15.978;2022-07-29T14:50:03;8.13;;;4.90;;
68168;SDS011;54981;50.206;15.978;2022-07-29T14:52:30;8.88;;;4.95;;
68168;SDS011;54981;50.206;15.978;2022-07-29T14:54:55;7.18;;;5.68;;
68168;SDS011;54981;50.206;15.978;2022-07-29T14:57:20;8.65;;;5.45;;
68168;SDS011;54981;50.206;15.978;2022-07-29T14:59:45;7.72;;;5.75;;
68168;SDS011;54981;50.206;15.978;2022-07-29T15:02:11;10.27;;;6.13;;
68168;SDS011;54981;50.206;15.978;2022-07-29T15:04:36;6.25;;;5.13;;
68168;SDS011;54981;50.206;15.978;2022-07-29T15:07:02;6.90;;;5.50;;
68168;SDS011;54981;50.206;15.978;2022-07-29T15:09:28;9.80;;;5.75;;
68168;SDS011;54981;50.206;15.978;2022-07-29T15:11:53;6.90;;;5.13;;